createdAt,value
2022-11-08T00:01:17.186Z,99.61
2022-11-08T00:06:36.943Z,100.00
2022-11-08T00:11:57.018Z,99.62
2022-11-08T00:16:58.377Z,99.61
2022-11-08T00:21:59.746Z,99.14
2022-11-08T00:27:03.988Z,99.12
2022-11-08T00:32:09.107Z,99.42
2022-11-08T00:37:11.013Z,99.05
2022-11-08T00:42:12.777Z,99.56
2022-11-08T00:47:14.163Z,99.77
2022-11-08T00:52:15.511Z,99.46
2022-11-08T00:57:16.857Z,99.27
2022-11-08T01:02:18.327Z,99.02
2022-11-08T01:07:19.723Z,99.34
2022-11-08T01:12:21.069Z,99.34
2022-11-08T01:17:22.519Z,98.88
2022-11-08T01:22:23.856Z,99.09
2022-11-08T01:27:25.206Z,99.17
2022-11-08T01:32:26.560Z,99.32
2022-11-08T01:37:27.927Z,99.25
2022-11-08T01:42:32.764Z,98.94
2022-11-08T01:47:34.339Z,98.97
2022-11-08T01:52:40.471Z,99.01
2022-11-08T01:57:57.311Z,98.76
2022-11-08T02:03:01.898Z,98.63
2022-11-08T02:08:26.016Z,98.60
2022-11-08T02:13:29.449Z,98.59
2022-11-08T02:18:32.265Z,98.81
2022-11-08T02:23:51.104Z,98.53
2022-11-08T02:28:52.525Z,99.17
2022-11-08T02:33:54.023Z,98.83
2022-11-08T02:38:57.691Z,98.68
2022-11-08T02:43:59.038Z,99.04
2022-11-08T02:49:00.415Z,98.84
2022-11-08T02:54:01.764Z,98.62
2022-11-08T02:59:03.178Z,98.97
2022-11-08T03:04:04.767Z,98.90
2022-11-08T03:09:06.149Z,99.01
2022-11-08T03:14:07.510Z,98.49
2022-11-08T03:19:08.900Z,98.96
2022-11-08T03:24:11.687Z,98.92
2022-11-08T03:29:12.946Z,100.00
2022-11-08T03:34:14.562Z,98.72
2022-11-08T03:39:15.952Z,98.75
2022-11-08T03:44:17.364Z,98.62
2022-11-08T03:49:18.731Z,98.83
2022-11-08T03:54:20.196Z,98.77
2022-11-08T03:59:21.540Z,98.43
2022-11-08T04:04:22.971Z,98.26
2022-11-08T04:09:24.328Z,98.00
2022-11-08T04:14:44.565Z,98.27
2022-11-08T04:20:04.653Z,98.63
2022-11-08T04:25:06.508Z,97.96
2022-11-08T04:30:08.435Z,97.91
2022-11-08T04:35:09.828Z,97.86
2022-11-08T04:40:11.679Z,97.86
2022-11-08T04:45:13.166Z,97.93
2022-11-08T04:50:15.133Z,97.71
2022-11-08T04:55:16.569Z,97.03
2022-11-08T05:00:18.156Z,97.06
2022-11-08T05:05:19.542Z,96.74
2022-11-08T05:10:20.886Z,97.68
2022-11-08T05:15:22.227Z,97.36
2022-11-08T05:20:42.240Z,97.48
2022-11-08T05:25:45.713Z,97.23
2022-11-08T05:30:56.814Z,97.68
2022-11-08T05:36:06.380Z,97.50
2022-11-08T05:41:13.316Z,97.50
2022-11-08T05:46:15.452Z,97.96
2022-11-08T05:51:18.110Z,97.67
2022-11-08T05:56:19.504Z,97.82
2022-11-08T06:01:20.895Z,96.89
2022-11-08T06:06:22.967Z,96.39
2022-11-08T06:11:26.509Z,95.97
2022-11-08T06:16:27.863Z,95.54
2022-11-08T06:21:29.287Z,96.15
2022-11-08T06:26:30.679Z,96.65
2022-11-08T06:31:32.061Z,97.39
2022-11-08T06:36:33.442Z,97.41
2022-11-08T06:41:35.014Z,97.77
2022-11-08T06:46:36.364Z,97.21
2022-11-08T06:51:37.814Z,98.50
2022-11-08T06:56:39.151Z,98.90
2022-11-08T07:01:45.327Z,98.53
2022-11-08T07:06:47.095Z,98.74
2022-11-08T07:11:48.451Z,98.62
2022-11-08T07:16:49.936Z,98.84
2022-11-08T07:21:51.286Z,99.16
2022-11-08T07:26:52.902Z,98.68
2022-11-08T07:31:54.586Z,98.87
2022-11-08T07:36:55.957Z,98.67
2022-11-08T07:41:57.311Z,99.04
2022-11-08T07:47:01.422Z,98.92
2022-11-08T07:52:02.880Z,98.70
2022-11-08T07:57:04.293Z,99.17
2022-11-08T08:02:06.420Z,99.41
2022-11-08T08:07:08.114Z,99.48
2022-11-08T08:12:09.513Z,99.68
2022-11-08T08:17:10.861Z,100.00
2022-11-08T08:22:12.328Z,100.00
2022-11-08T08:27:13.687Z,100.00
2022-11-08T08:32:15.052Z,100.00
2022-11-08T08:37:17.237Z,100.00
2022-11-08T08:42:18.600Z,100.00
2022-11-08T08:47:19.972Z,100.00
2022-11-08T08:52:21.356Z,100.00
2022-11-08T08:57:22.718Z,100.00
2022-11-08T09:02:24.100Z,100.00
2022-11-08T09:07:25.433Z,100.00
2022-11-08T09:12:27.717Z,100.00
2022-11-08T09:17:29.758Z,100.00
2022-11-08T09:22:33.852Z,100.00
2022-11-08T09:27:35.216Z,100.00
2022-11-08T09:37:59.989Z,100.00
2022-11-08T09:43:31.287Z,100.00
2022-11-08T09:48:41.046Z,100.00
2022-11-08T09:53:52.721Z,100.00
2022-11-08T09:59:05.544Z,100.00
2022-11-08T10:04:15.183Z,100.00
2022-11-08T10:09:35.441Z,100.00
2022-11-08T10:14:53.540Z,100.00
2022-11-08T10:20:20.822Z,99.22
2022-11-08T10:25:29.339Z,100.00
2022-11-08T10:30:36.208Z,99.24
2022-11-08T10:35:46.510Z,99.75
2022-11-08T10:41:20.333Z,98.99
2022-11-08T10:46:22.665Z,99.26
2022-11-08T10:51:24.145Z,99.47
2022-11-08T10:56:25.576Z,99.05
2022-11-08T11:01:26.992Z,98.50
2022-11-08T11:06:33.325Z,97.64
2022-11-08T11:11:38.884Z,96.93
2022-11-08T11:16:55.460Z,96.66
2022-11-08T11:22:03.642Z,97.93
2022-11-08T11:27:07.461Z,97.85
2022-11-08T11:32:34.481Z,96.44
2022-11-08T11:37:44.959Z,96.18
2022-11-08T11:43:01.730Z,95.33
2022-11-08T11:48:14.078Z,96.64
2022-11-08T11:53:18.140Z,96.94
2022-11-08T11:58:31.896Z,96.74
2022-11-08T12:03:44.532Z,96.10
2022-11-08T12:08:54.161Z,96.71
2022-11-08T12:14:28.591Z,95.81
2022-11-08T12:19:54.863Z,95.54
2022-11-08T12:25:03.077Z,95.66
2022-11-08T12:30:23.534Z,96.32
2022-11-08T12:35:38.737Z,95.98
2022-11-08T12:40:54.332Z,96.00
2022-11-08T12:46:16.358Z,95.21
2022-11-08T12:51:17.724Z,96.07
2022-11-08T12:56:28.267Z,94.79
2022-11-08T13:01:30.652Z,95.55
2022-11-08T13:06:50.359Z,100.00
2022-11-08T13:12:37.116Z,96.28
2022-11-08T13:17:38.521Z,94.36
2022-11-08T13:22:44.261Z,94.54
2022-11-08T13:27:48.238Z,94.67
2022-11-08T13:33:26.621Z,93.55
2022-11-08T13:39:12.400Z,94.06
2022-11-08T13:44:52.097Z,94.08
2022-11-08T13:50:13.577Z,94.76
2022-11-08T13:55:43.554Z,93.74
2022-11-08T14:00:46.360Z,94.37
2022-11-08T14:05:49.089Z,94.33
2022-11-08T14:11:02.509Z,94.42
2022-11-08T14:16:12.647Z,94.36
2022-11-08T14:21:19.259Z,94.28
2022-11-08T14:26:23.568Z,94.49
2022-11-08T14:31:31.237Z,94.04
2022-11-08T14:36:32.695Z,94.24
2022-11-08T14:41:34.218Z,94.36
2022-11-08T14:46:39.449Z,94.32
2022-11-08T14:51:42.244Z,94.38
2022-11-08T14:56:45.032Z,94.51
2022-11-08T15:01:49.265Z,93.98
2022-11-08T15:06:56.402Z,93.73
2022-11-08T15:12:02.342Z,93.63
2022-11-08T15:17:04.132Z,94.15
2022-11-08T15:22:24.427Z,93.69
2022-11-08T15:27:26.773Z,94.12
2022-11-08T15:32:35.094Z,93.96
2022-11-08T15:37:38.929Z,93.67
2022-11-08T15:42:44.692Z,93.71
2022-11-08T15:47:48.023Z,93.47
2022-11-08T15:52:52.033Z,93.53
2022-11-08T15:57:54.631Z,93.09
2022-11-08T16:02:56.318Z,95.13
2022-11-08T16:07:58.334Z,93.98
2022-11-08T16:13:00.864Z,94.03
2022-11-08T16:18:02.573Z,95.41
2022-11-08T16:23:07.235Z,93.83
2022-11-08T16:28:19.170Z,93.44
2022-11-08T16:33:23.838Z,93.51
2022-11-08T16:38:28.788Z,93.28
2022-11-08T16:43:30.631Z,93.53
2022-11-08T16:48:32.576Z,93.55
2022-11-08T16:53:36.595Z,93.98
2022-11-08T16:58:38.101Z,94.20
2022-11-08T17:03:39.999Z,93.89
2022-11-08T17:08:41.446Z,93.83
2022-11-08T17:13:43.034Z,93.61
2022-11-08T17:18:48.567Z,93.59
2022-11-08T17:23:52.834Z,93.31
2022-11-08T17:28:57.612Z,93.19
2022-11-08T17:33:58.992Z,93.28
2022-11-08T17:39:01.005Z,93.02
2022-11-08T17:44:02.409Z,93.25
2022-11-08T17:49:04.061Z,92.91
2022-11-08T17:54:05.551Z,93.21
2022-11-08T17:59:06.969Z,93.06
2022-11-08T18:04:10.291Z,93.39
2022-11-08T18:09:11.746Z,92.97
2022-11-08T18:14:15.331Z,92.93
2022-11-08T18:19:17.194Z,92.97
2022-11-08T18:24:18.594Z,93.29
2022-11-08T18:29:20.116Z,93.49
2022-11-08T18:34:21.598Z,93.60
2022-11-08T18:39:23.005Z,93.68
2022-11-08T18:44:24.382Z,93.51
2022-11-08T18:49:25.748Z,93.25
2022-11-08T18:54:27.176Z,93.29
2022-11-08T18:59:28.936Z,93.42
2022-11-08T19:04:30.305Z,93.90
2022-11-08T19:09:31.703Z,93.23
2022-11-08T19:14:35.237Z,93.39
2022-11-08T19:19:39.509Z,93.36
2022-11-08T19:24:40.955Z,93.21
2022-11-08T19:29:42.724Z,93.47
2022-11-08T19:34:46.908Z,93.63
2022-11-08T19:39:48.844Z,93.33
2022-11-08T19:44:50.338Z,93.25
2022-11-08T19:49:51.909Z,92.80
2022-11-08T19:54:54.248Z,93.15
2022-11-08T19:59:55.799Z,92.75
2022-11-08T20:04:57.263Z,92.69
2022-11-08T20:09:58.669Z,93.08
2022-11-08T20:15:00.073Z,92.92
2022-11-08T20:20:02.122Z,92.73
2022-11-08T20:25:03.606Z,92.53
2022-11-08T20:30:05.610Z,91.90
2022-11-08T20:35:08.638Z,92.11
2022-11-08T20:40:10.667Z,92.11
2022-11-08T20:45:14.948Z,92.22
2022-11-08T20:50:16.738Z,92.01
2022-11-08T20:55:18.129Z,91.93
2022-11-08T21:00:32.828Z,92.19
2022-11-08T21:05:40.937Z,91.82
2022-11-08T21:10:45.214Z,91.53
2022-11-08T21:15:47.939Z,91.51
2022-11-08T21:20:50.708Z,91.54
2022-11-08T21:25:52.323Z,91.94
2022-11-08T21:30:54.757Z,91.57
2022-11-08T21:35:56.889Z,91.14
2022-11-08T21:41:05.817Z,90.75
2022-11-08T21:46:22.238Z,90.51
2022-11-08T22:03:34.895Z,93.77
2022-11-08T22:09:48.231Z,92.47
2022-11-08T22:15:03.580Z,91.81
2022-11-08T22:20:10.260Z,91.85
2022-11-08T22:25:11.746Z,91.85
2022-11-08T22:30:16.663Z,91.60
2022-11-08T22:35:18.376Z,90.86
2022-11-08T22:40:19.781Z,91.39
2022-11-08T22:45:21.155Z,90.85
2022-11-08T22:50:22.585Z,91.12
2022-11-08T22:55:24.935Z,90.70
2022-11-08T23:00:28.330Z,91.10
2022-11-08T23:05:30.913Z,90.77
2022-11-08T23:10:32.230Z,92.85
2022-11-08T23:15:34.699Z,92.07
2022-11-08T23:20:54.567Z,91.46
2022-11-08T23:25:56.020Z,91.44
2022-11-08T23:31:20.697Z,91.20
2022-11-08T23:36:22.833Z,91.49
2022-11-08T23:41:42.857Z,91.72
2022-11-08T23:46:44.308Z,91.66
2022-11-08T23:51:45.757Z,91.25
2022-11-08T23:56:47.517Z,91.51
